createdAt,value
2023-01-17T00:00:40.253Z,2.27
2023-01-17T00:03:10.778Z,1.80
2023-01-17T00:06:01.560Z,2.00
2023-01-17T00:08:49.183Z,2.00
2023-01-17T00:11:22.026Z,1.60
2023-01-17T00:13:54.003Z,1.93
2023-01-17T00:16:28.393Z,1.90
2023-01-17T00:19:12.272Z,2.20
2023-01-17T00:22:04.360Z,1.80
2023-01-17T00:24:51.943Z,2.40
2023-01-17T00:27:21.163Z,2.23
2023-01-17T00:29:50.968Z,1.80
2023-01-17T00:32:19.167Z,2.00
2023-01-17T00:34:52.218Z,2.10
2023-01-17T00:37:20.422Z,2.10
2023-01-17T00:39:48.505Z,1.87
2023-01-17T00:42:15.275Z,2.10
2023-01-17T00:45:06.552Z,2.53
2023-01-17T00:47:56.840Z,1.93
2023-01-17T00:50:42.285Z,2.20
2023-01-17T00:53:31.966Z,2.27
2023-01-17T00:56:28.640Z,2.33
2023-01-17T00:59:24.780Z,2.20
2023-01-17T01:02:10.924Z,1.97
2023-01-17T01:04:58.497Z,2.13
2023-01-17T01:07:46.298Z,2.13
2023-01-17T01:10:34.776Z,2.20
2023-01-17T01:13:23.800Z,2.30
2023-01-17T01:16:11.837Z,2.43
2023-01-17T01:18:58.651Z,1.90
2023-01-17T01:21:59.849Z,2.60
2023-01-17T01:24:47.530Z,2.00
2023-01-17T01:27:38.812Z,1.93
2023-01-17T01:30:30.147Z,2.60
2023-01-17T01:33:15.577Z,2.53
2023-01-17T01:35:51.570Z,2.10
2023-01-17T01:38:20.296Z,2.20
2023-01-17T01:40:50.530Z,2.20
2023-01-17T01:43:21.166Z,2.10
2023-01-17T01:45:58.230Z,3.03
2023-01-17T01:48:36.512Z,2.10
2023-01-17T01:51:10.914Z,2.30
2023-01-17T01:53:43.352Z,2.53
2023-01-17T01:56:13.666Z,2.40
2023-01-17T01:58:46.596Z,2.30
2023-01-17T02:01:22.222Z,2.50
2023-01-17T02:03:54.635Z,2.60
2023-01-17T02:06:29.715Z,2.43
2023-01-17T02:08:59.881Z,2.50
2023-01-17T02:11:28.345Z,2.47
2023-01-17T02:13:59.327Z,2.53
2023-01-17T02:16:42.811Z,2.60
2023-01-17T02:19:38.953Z,2.50
2023-01-17T02:22:23.171Z,2.67
2023-01-17T02:25:09.762Z,3.27
2023-01-17T02:28:10.616Z,3.30
2023-01-17T02:30:43.383Z,3.50
2023-01-17T02:33:23.601Z,4.10
2023-01-17T02:35:59.479Z,3.40
2023-01-17T02:38:37.831Z,4.47
2023-01-17T02:41:11.183Z,3.90
2023-01-17T02:43:42.303Z,4.60
2023-01-17T02:46:23.048Z,5.10
2023-01-17T02:49:01.425Z,5.40
2023-01-17T02:51:56.665Z,4.80
2023-01-17T02:54:52.977Z,5.50
2023-01-17T02:57:40.412Z,5.40
2023-01-17T03:00:17.749Z,5.80
2023-01-17T03:02:58.378Z,6.20
2023-01-17T03:05:33.871Z,5.80
2023-01-17T03:08:04.855Z,6.10
2023-01-17T03:10:35.607Z,6.60
2023-01-17T03:13:04.869Z,6.50
2023-01-17T03:15:35.932Z,6.73
2023-01-17T03:18:10.456Z,7.80
2023-01-17T03:20:41.491Z,6.97
2023-01-17T03:23:12.339Z,6.83
2023-01-17T03:25:45.383Z,7.43
2023-01-17T03:28:15.628Z,7.40
2023-01-17T03:30:44.773Z,7.00
2023-01-17T03:33:26.303Z,7.10
2023-01-17T03:35:57.998Z,7.87
2023-01-17T03:38:30.402Z,8.27
2023-01-17T03:41:00.274Z,8.23
2023-01-17T03:43:32.794Z,8.67
2023-01-17T03:46:06.785Z,8.30
2023-01-17T03:48:36.011Z,8.17
2023-01-17T03:51:05.926Z,8.47
2023-01-17T03:53:38.730Z,8.40
2023-01-17T03:56:11.935Z,7.67
2023-01-17T03:58:43.705Z,6.90
2023-01-17T04:01:14.540Z,6.93
2023-01-17T04:03:45.908Z,6.23
2023-01-17T04:06:16.377Z,6.77
2023-01-17T04:08:45.922Z,6.60
2023-01-17T04:11:20.455Z,6.70
2023-01-17T04:13:51.265Z,7.00
2023-01-17T04:16:19.661Z,6.40
2023-01-17T04:18:54.655Z,5.67
2023-01-17T04:21:22.612Z,4.33
2023-01-17T04:23:50.507Z,3.60
2023-01-17T04:26:19.379Z,4.10
2023-01-17T04:28:49.348Z,3.50
2023-01-17T04:31:20.563Z,2.80
2023-01-17T04:33:57.010Z,2.50
2023-01-17T04:36:32.765Z,2.63
2023-01-17T04:39:01.909Z,3.00
2023-01-17T04:41:29.880Z,2.73
2023-01-17T04:44:00.625Z,3.50
2023-01-17T04:46:38.263Z,3.03
2023-01-17T04:49:08.860Z,2.40
2023-01-17T04:51:44.343Z,2.60
2023-01-17T04:54:14.554Z,2.67
2023-01-17T04:56:46.937Z,2.80
2023-01-17T04:59:19.182Z,2.63
2023-01-17T05:01:50.908Z,3.00
2023-01-17T05:04:20.356Z,2.90
2023-01-17T05:06:53.098Z,2.70
2023-01-17T05:09:23.904Z,3.10
2023-01-17T05:11:51.934Z,3.30
2023-01-17T05:14:19.806Z,3.00
2023-01-17T05:16:55.860Z,3.00
2023-01-17T05:19:31.800Z,3.87
2023-01-17T05:22:05.313Z,3.37
2023-01-17T05:24:36.486Z,3.40
2023-01-17T05:27:10.172Z,3.50
2023-01-17T05:29:40.089Z,3.80
2023-01-17T05:32:08.500Z,3.80
2023-01-17T05:34:37.793Z,3.97
2023-01-17T05:37:09.319Z,4.60
2023-01-17T05:39:39.898Z,4.50
2023-01-17T05:42:09.506Z,3.80
2023-01-17T05:44:41.462Z,4.23
2023-01-17T05:47:12.051Z,3.93
2023-01-17T05:49:44.443Z,3.70
2023-01-17T05:52:16.483Z,4.20
2023-01-17T05:54:45.981Z,2.57
2023-01-17T05:57:16.734Z,2.87
2023-01-17T05:59:47.975Z,2.30
2023-01-17T06:02:19.676Z,1.40
2023-01-17T06:04:51.964Z,1.43
2023-01-17T06:07:19.929Z,1.47
2023-01-17T06:09:47.822Z,1.20
2023-01-17T06:12:15.701Z,1.00
2023-01-17T06:14:48.457Z,0.80
2023-01-17T06:17:18.717Z,0.70
2023-01-17T06:19:53.528Z,0.70
2023-01-17T06:22:27.593Z,0.80
2023-01-17T06:24:55.783Z,0.90
2023-01-17T06:27:23.656Z,0.70
2023-01-17T06:29:53.854Z,0.60
2023-01-17T06:32:23.649Z,0.60
2023-01-17T06:34:56.117Z,0.87
2023-01-17T06:37:26.190Z,0.80
2023-01-17T06:39:58.543Z,0.50
2023-01-17T06:42:28.066Z,0.60
2023-01-17T06:44:55.958Z,0.83
2023-01-17T06:47:26.885Z,2.00
2023-01-17T06:50:03.155Z,0.77
2023-01-17T06:52:37.419Z,1.17
2023-01-17T06:55:10.270Z,1.27
2023-01-17T06:57:43.572Z,1.20
2023-01-17T07:00:12.969Z,1.53
2023-01-17T07:02:47.682Z,0.73
2023-01-17T07:05:21.912Z,1.70
2023-01-17T07:07:58.775Z,1.57
2023-01-17T07:10:27.995Z,0.87
2023-01-17T07:13:00.625Z,1.40
2023-01-17T07:15:34.242Z,1.73
2023-01-17T07:18:02.491Z,1.50
2023-01-17T07:20:36.027Z,1.03
2023-01-17T07:23:07.395Z,0.80
2023-01-17T07:25:37.497Z,1.90
2023-01-17T07:28:06.793Z,1.07
2023-01-17T07:30:44.708Z,1.50
2023-01-17T07:33:12.659Z,0.90
2023-01-17T07:35:41.946Z,0.97
2023-01-17T07:38:26.989Z,1.03
2023-01-17T07:40:59.145Z,1.20
2023-01-17T07:43:27.214Z,1.37
2023-01-17T07:46:00.432Z,1.50
2023-01-17T07:48:38.386Z,1.10
2023-01-17T07:51:09.940Z,1.57
2023-01-17T07:53:38.009Z,1.23
2023-01-17T07:56:09.361Z,1.20
2023-01-17T07:58:40.459Z,1.20
2023-01-17T08:01:13.679Z,1.23
2023-01-17T08:03:45.464Z,1.53
2023-01-17T08:06:26.063Z,1.30
2023-01-17T08:08:58.849Z,1.60
2023-01-17T08:11:28.488Z,1.80
2023-01-17T08:14:02.560Z,1.40
2023-01-17T08:16:32.435Z,1.30
2023-01-17T08:19:04.657Z,0.90
2023-01-17T08:21:37.991Z,1.00
2023-01-17T08:24:07.630Z,1.33
2023-01-17T08:26:37.547Z,1.03
2023-01-17T08:29:09.611Z,1.00
2023-01-17T08:31:43.301Z,1.13
2023-01-17T08:34:15.067Z,2.07
2023-01-17T08:36:44.798Z,0.80
2023-01-17T08:39:13.410Z,1.30
2023-01-17T08:41:42.579Z,1.00
2023-01-17T08:44:14.466Z,3.40
2023-01-17T08:46:44.344Z,1.63
2023-01-17T08:49:12.992Z,1.13
2023-01-17T08:51:42.970Z,1.10
2023-01-17T08:54:15.057Z,1.27
2023-01-17T08:56:43.639Z,1.30
2023-01-17T08:59:18.233Z,1.30
2023-01-17T09:01:58.160Z,1.23
2023-01-17T09:04:27.920Z,1.60
2023-01-17T09:06:57.087Z,1.17
2023-01-17T09:09:28.377Z,1.83
2023-01-17T09:11:58.787Z,1.43
2023-01-17T09:14:33.810Z,1.50
2023-01-17T09:17:16.357Z,1.60
2023-01-17T09:19:50.661Z,1.60
2023-01-17T09:22:24.947Z,1.50
2023-01-17T09:25:01.954Z,1.40
2023-01-17T09:27:31.509Z,1.57
2023-01-17T09:30:02.322Z,1.60
2023-01-17T09:32:32.299Z,1.53
2023-01-17T09:35:05.200Z,1.53
2023-01-17T09:37:34.352Z,2.03
2023-01-17T09:40:10.887Z,1.53
2023-01-17T09:42:46.090Z,1.30
2023-01-17T09:45:19.239Z,1.37
2023-01-17T09:47:55.587Z,1.50
2023-01-17T09:50:33.349Z,1.50
2023-01-17T09:53:06.205Z,1.20
2023-01-17T09:55:45.472Z,1.33
2023-01-17T09:58:25.601Z,1.30
2023-01-17T10:01:05.515Z,1.10
2023-01-17T10:03:49.181Z,1.10
2023-01-17T10:06:47.463Z,1.67
2023-01-17T10:09:39.252Z,1.30
2023-01-17T10:12:23.413Z,1.40
2023-01-17T10:15:14.628Z,1.30
2023-01-17T10:17:58.077Z,1.30
2023-01-17T10:20:47.842Z,1.57
2023-01-17T10:23:40.059Z,1.43
2023-01-17T10:26:12.322Z,1.30
2023-01-17T10:29:08.947Z,1.47
2023-01-17T10:31:46.395Z,1.20
2023-01-17T10:34:19.723Z,1.20
2023-01-17T10:36:56.112Z,1.10
2023-01-17T10:39:26.982Z,1.00
2023-01-17T10:41:58.023Z,1.07
2023-01-17T10:44:37.690Z,0.90
2023-01-17T10:47:13.627Z,1.47
2023-01-17T10:49:45.258Z,1.00
2023-01-17T10:52:21.048Z,1.00
2023-01-17T10:55:09.211Z,1.40
2023-01-17T11:00:43.989Z,0.70
2023-01-17T11:03:13.006Z,1.07
2023-01-17T11:05:42.749Z,1.30
2023-01-17T11:08:17.905Z,0.90
2023-01-17T11:10:54.105Z,1.00
2023-01-17T11:13:31.064Z,1.07
2023-01-17T11:16:16.667Z,1.00
2023-01-17T11:18:44.599Z,1.03
2023-01-17T11:21:19.766Z,1.07
2023-01-17T11:23:51.644Z,0.93
2023-01-17T11:26:25.819Z,1.30
2023-01-17T11:29:15.252Z,1.23
2023-01-17T11:31:52.379Z,0.93
2023-01-17T11:34:26.494Z,1.37
2023-01-17T11:37:19.173Z,1.00
2023-01-17T11:39:48.980Z,1.10
2023-01-17T11:42:35.593Z,0.90
2023-01-17T11:45:30.909Z,0.87
2023-01-17T11:48:17.383Z,0.70
2023-01-17T11:50:48.461Z,1.00
2023-01-17T11:53:25.900Z,0.90
2023-01-17T11:56:07.205Z,1.07
2023-01-17T11:58:40.708Z,1.20
2023-01-17T12:01:27.194Z,0.73
2023-01-17T12:04:23.997Z,1.00
2023-01-17T12:07:06.279Z,0.83
2023-01-17T12:09:41.083Z,0.90
2023-01-17T12:12:39.211Z,0.90
2023-01-17T12:15:29.288Z,0.93
2023-01-17T12:18:36.243Z,0.90
2023-01-17T12:21:37.429Z,1.20
2023-01-17T12:24:33.126Z,0.70
2023-01-17T12:27:13.318Z,1.00
2023-01-17T12:29:48.867Z,0.80
2023-01-17T12:32:35.489Z,0.97
2023-01-17T12:35:15.846Z,0.83
2023-01-17T12:38:04.239Z,0.93
2023-01-17T12:40:38.988Z,0.97
2023-01-17T12:43:15.227Z,0.93
2023-01-17T12:45:45.718Z,0.80
2023-01-17T12:48:19.382Z,0.90
2023-01-17T12:50:58.799Z,1.00
2023-01-17T12:53:40.333Z,0.70
2023-01-17T12:56:20.251Z,0.70
2023-01-17T12:58:53.860Z,1.00
2023-01-17T13:01:29.342Z,1.43
2023-01-17T13:04:19.039Z,1.00
2023-01-17T13:06:59.746Z,0.80
2023-01-17T13:09:37.957Z,0.93
2023-01-17T13:12:15.111Z,0.80
2023-01-17T13:14:46.545Z,0.70
2023-01-17T13:17:33.902Z,0.70
2023-01-17T13:20:09.725Z,0.70
2023-01-17T13:22:41.627Z,0.60
2023-01-17T13:25:24.126Z,0.90
2023-01-17T13:28:07.158Z,0.97
2023-01-17T13:31:10.993Z,0.90
2023-01-17T13:33:52.643Z,1.03
2023-01-17T13:36:32.001Z,1.17
2023-01-17T13:39:24.965Z,0.90
2023-01-17T13:42:09.707Z,0.80
2023-01-17T13:44:42.466Z,0.80
2023-01-17T13:47:38.743Z,0.90
2023-01-17T13:50:26.966Z,0.70
2023-01-17T13:53:01.004Z,0.70
2023-01-17T13:55:46.217Z,0.83
2023-01-17T14:01:51.760Z,0.80
2023-01-17T14:04:27.808Z,1.10
2023-01-17T14:07:03.824Z,1.10
2023-01-17T14:09:44.662Z,0.80
2023-01-17T14:12:28.007Z,0.90
2023-01-17T14:15:03.385Z,0.87
2023-01-17T14:17:51.570Z,1.00
2023-01-17T14:20:54.717Z,0.90
2023-01-17T14:23:43.774Z,0.73
2023-01-17T14:26:39.301Z,1.00
2023-01-17T14:29:45.209Z,1.00
2023-01-17T14:32:16.861Z,0.73
2023-01-17T14:34:51.102Z,1.00
2023-01-17T14:37:28.958Z,1.23
2023-01-17T14:39:56.875Z,0.97
2023-01-17T14:42:27.474Z,1.17
2023-01-17T14:45:04.315Z,1.10
2023-01-17T14:47:36.870Z,1.00
2023-01-17T14:50:20.344Z,1.60
2023-01-17T14:53:07.141Z,1.13
2023-01-17T14:55:39.865Z,1.17
2023-01-17T14:58:20.470Z,1.07
2023-01-17T15:00:50.069Z,1.27
2023-01-17T15:03:23.704Z,1.00
2023-01-17T15:05:58.765Z,1.10
2023-01-17T15:08:36.705Z,0.90
2023-01-17T15:11:07.955Z,1.03
2023-01-17T15:13:44.763Z,1.00
2023-01-17T15:16:24.657Z,1.20
2023-01-17T15:18:59.756Z,0.90
2023-01-17T15:21:32.108Z,1.03
2023-01-17T15:24:10.099Z,1.20
2023-01-17T15:26:45.249Z,1.10
2023-01-17T15:29:21.031Z,1.10
2023-01-17T15:31:57.969Z,1.37
2023-01-17T15:34:38.168Z,1.00
2023-01-17T15:37:11.658Z,1.57
2023-01-17T15:39:43.419Z,1.00
2023-01-17T15:42:27.159Z,1.20
2023-01-17T15:45:35.983Z,0.87
2023-01-17T15:48:41.550Z,1.17
2023-01-17T15:51:11.875Z,1.00
2023-01-17T15:53:43.342Z,1.23
2023-01-17T15:56:24.842Z,0.90
2023-01-17T15:58:54.425Z,1.60
2023-01-17T16:01:28.642Z,1.17
2023-01-17T16:04:05.465Z,1.20
2023-01-17T16:06:45.606Z,1.80
2023-01-17T16:09:29.544Z,1.07
2023-01-17T16:12:07.941Z,1.20
2023-01-17T16:14:56.278Z,1.33
2023-01-17T16:17:28.896Z,1.40
2023-01-17T16:20:02.314Z,1.37
2023-01-17T16:22:30.202Z,1.50
2023-01-17T16:25:09.122Z,1.77
2023-01-17T16:27:37.620Z,1.50
2023-01-17T16:30:15.166Z,2.57
2023-01-17T16:32:58.511Z,1.77
2023-01-17T16:35:33.015Z,1.50
2023-01-17T16:38:07.027Z,1.80
2023-01-17T16:40:41.197Z,2.03
2023-01-17T16:43:15.787Z,2.40
2023-01-17T16:45:59.182Z,2.80
2023-01-17T16:48:29.119Z,2.57
2023-01-17T16:50:56.999Z,2.93
2023-01-17T16:53:28.094Z,2.60
2023-01-17T16:56:03.833Z,3.30
2023-01-17T16:58:32.894Z,3.30
2023-01-17T17:01:00.832Z,3.53
2023-01-17T17:03:33.754Z,3.23
2023-01-17T17:06:05.232Z,3.50
2023-01-17T17:08:38.655Z,3.73
2023-01-17T17:11:19.095Z,4.00
2023-01-17T17:13:48.761Z,4.20
2023-01-17T17:16:18.485Z,4.80
2023-01-17T17:18:55.112Z,4.37
2023-01-17T17:21:24.443Z,4.80
2023-01-17T17:23:59.500Z,4.40
2023-01-17T17:26:40.577Z,5.10
2023-01-17T17:29:12.619Z,4.47
2023-01-17T17:31:47.379Z,4.57
2023-01-17T17:34:25.406Z,5.40
2023-01-17T17:36:56.446Z,5.03
2023-01-17T17:39:33.811Z,4.40
2023-01-17T17:42:10.066Z,4.90
2023-01-17T17:44:41.029Z,4.30
2023-01-17T17:47:15.742Z,5.60
2023-01-17T17:49:48.126Z,4.77
2023-01-17T17:52:21.534Z,5.20
2023-01-17T17:54:51.382Z,5.40
2023-01-17T17:57:23.643Z,5.03
2023-01-17T17:59:56.764Z,5.37
2023-01-17T18:02:26.447Z,5.27
2023-01-17T18:04:59.294Z,5.07
2023-01-17T18:07:37.768Z,4.63
2023-01-17T18:10:11.954Z,4.73
2023-01-17T18:12:51.275Z,4.63
2023-01-17T18:15:21.507Z,4.83
2023-01-17T18:17:52.500Z,4.40
2023-01-17T18:20:27.548Z,4.43
2023-01-17T18:23:07.028Z,5.20
2023-01-17T18:25:46.608Z,6.27
2023-01-17T18:28:18.398Z,4.63
2023-01-17T18:30:46.275Z,4.67
2023-01-17T18:33:16.065Z,5.20
2023-01-17T18:35:53.362Z,4.67
2023-01-17T18:38:21.277Z,4.90
2023-01-17T18:40:55.327Z,5.27
2023-01-17T18:43:36.198Z,4.50
2023-01-17T18:46:10.883Z,4.90
2023-01-17T18:48:39.603Z,4.83
2023-01-17T18:51:13.474Z,5.47
2023-01-17T18:53:44.942Z,5.50
2023-01-17T18:56:18.265Z,4.90
2023-01-17T18:59:00.424Z,6.80
2023-01-17T19:01:30.188Z,5.47
2023-01-17T19:03:58.614Z,5.63
2023-01-17T19:06:32.324Z,6.03
2023-01-17T19:09:05.295Z,5.40
2023-01-17T19:11:42.979Z,5.43
2023-01-17T19:14:15.236Z,6.00
2023-01-17T19:16:43.659Z,5.60
2023-01-17T19:19:16.430Z,5.93
2023-01-17T19:21:46.764Z,5.57
2023-01-17T19:24:17.108Z,5.73
2023-01-17T19:26:59.362Z,6.03
2023-01-17T19:29:30.667Z,6.50
2023-01-17T19:32:07.310Z,5.60
2023-01-17T19:34:42.693Z,5.63
2023-01-17T19:37:16.329Z,5.83
2023-01-17T19:39:46.919Z,5.73
2023-01-17T19:42:19.734Z,5.70
2023-01-17T19:44:51.157Z,6.80
2023-01-17T19:47:24.378Z,5.60
2023-01-17T19:49:55.114Z,6.60
2023-01-17T19:52:28.152Z,6.07
2023-01-17T19:55:00.802Z,6.00
2023-01-17T19:57:34.760Z,6.37
2023-01-17T20:00:16.879Z,6.40
2023-01-17T20:02:44.813Z,5.93
2023-01-17T20:05:15.889Z,6.60
2023-01-17T20:07:47.359Z,5.97
2023-01-17T20:10:15.354Z,6.30
2023-01-17T20:12:51.842Z,7.23
2023-01-17T20:15:22.865Z,6.80
2023-01-17T20:17:57.243Z,6.53
2023-01-17T20:20:32.428Z,6.10
2023-01-17T20:23:01.301Z,6.50
2023-01-17T20:25:31.614Z,6.30
2023-01-17T20:27:59.676Z,6.33
2023-01-17T20:30:36.565Z,6.60
2023-01-17T20:33:21.853Z,6.57
2023-01-17T20:36:08.594Z,6.50
2023-01-17T20:38:43.690Z,6.17
2023-01-17T20:41:22.611Z,6.23
2023-01-17T20:43:58.667Z,6.80
2023-01-17T20:46:39.507Z,6.57
2023-01-17T20:49:14.422Z,5.77
2023-01-17T20:51:49.638Z,6.10
2023-01-17T20:54:23.822Z,6.13
2023-01-17T20:56:57.799Z,5.93
2023-01-17T20:59:28.603Z,5.70
2023-01-17T21:02:02.633Z,6.30
2023-01-17T21:04:30.769Z,4.80
2023-01-17T21:07:00.694Z,5.60
2023-01-17T21:09:31.448Z,5.70
2023-01-17T21:12:01.867Z,5.97
2023-01-17T21:14:29.968Z,5.80
2023-01-17T21:17:00.610Z,6.37
2023-01-17T21:19:30.689Z,5.47
2023-01-17T21:21:59.073Z,5.87
2023-01-17T21:24:31.781Z,5.37
2023-01-17T21:27:01.231Z,5.80
2023-01-17T21:29:31.465Z,4.97
2023-01-17T21:32:04.786Z,5.20
2023-01-17T21:34:46.573Z,5.63
2023-01-17T21:37:23.638Z,5.80
2023-01-17T21:39:57.556Z,5.90
2023-01-17T21:42:31.631Z,6.00
2023-01-17T21:45:03.617Z,5.60
2023-01-17T21:47:34.127Z,5.53
2023-01-17T21:50:09.699Z,5.07
2023-01-17T21:52:41.247Z,5.40
2023-01-17T21:55:35.304Z,5.77
2023-01-17T21:58:29.795Z,5.40
2023-01-17T22:01:08.822Z,6.43
2023-01-17T22:03:49.274Z,6.00
2023-01-17T22:06:22.320Z,6.47
2023-01-17T22:08:55.058Z,5.97
2023-01-17T22:11:43.239Z,5.90
2023-01-17T22:14:13.348Z,6.07
2023-01-17T22:16:49.738Z,6.43
2023-01-17T22:19:19.313Z,5.70
2023-01-17T22:21:52.199Z,6.40
2023-01-17T22:24:30.688Z,6.10
2023-01-17T22:26:59.866Z,5.90
2023-01-17T22:29:33.925Z,5.17
2023-01-17T22:32:01.818Z,6.50
2023-01-17T22:34:38.188Z,5.47
2023-01-17T22:37:09.919Z,6.30
2023-01-17T22:39:45.630Z,5.70
2023-01-17T22:42:15.069Z,4.93
2023-01-17T22:44:42.946Z,5.30
2023-01-17T22:47:16.610Z,5.13
2023-01-17T22:49:45.807Z,5.10
2023-01-17T22:52:14.990Z,5.40
2023-01-17T22:54:47.117Z,5.47
2023-01-17T22:57:19.616Z,5.73
2023-01-17T22:59:51.102Z,5.43
2023-01-17T23:02:21.963Z,5.60
2023-01-17T23:04:51.266Z,5.70
2023-01-17T23:07:20.354Z,6.90
2023-01-17T23:09:48.229Z,6.47
2023-01-17T23:12:18.325Z,6.37
2023-01-17T23:15:05.623Z,6.03
2023-01-17T23:17:53.141Z,6.67
2023-01-17T23:20:28.359Z,6.90
2023-01-17T23:23:06.171Z,6.57
2023-01-17T23:25:36.789Z,6.43
2023-01-17T23:28:14.689Z,6.87
2023-01-17T23:30:49.054Z,6.60
2023-01-17T23:33:20.221Z,7.20
2023-01-17T23:35:52.166Z,7.00
2023-01-17T23:38:29.947Z,6.73
2023-01-17T23:41:32.874Z,7.00
2023-01-17T23:44:13.539Z,7.40
2023-01-17T23:46:51.945Z,6.40
2023-01-17T23:49:21.104Z,7.27
2023-01-17T23:51:56.370Z,7.20
2023-01-17T23:54:26.514Z,7.67
2023-01-17T23:56:55.871Z,7.23
2023-01-17T23:59:25.782Z,7.20
